createdAt,value
2022-12-07T00:01:27.414Z,5.03
2022-12-07T00:04:00.906Z,5.01
2022-12-07T00:06:27.328Z,5.11
2022-12-07T00:08:53.659Z,5.05
2022-12-07T00:11:22.142Z,5.10
2022-12-07T00:13:55.750Z,5.16
2022-12-07T00:16:24.131Z,5.09
2022-12-07T00:18:52.075Z,5.22
2022-12-07T00:21:22.314Z,5.15
2022-12-07T00:23:50.006Z,5.20
2022-12-07T00:26:22.119Z,5.19
2022-12-07T00:28:53.857Z,5.15
2022-12-07T00:31:23.150Z,5.35
2022-12-07T00:33:50.711Z,5.66
2022-12-07T00:36:26.090Z,5.33
2022-12-07T00:38:55.001Z,5.22
2022-12-07T00:41:23.872Z,5.15
2022-12-07T00:43:51.283Z,5.15
2022-12-07T00:46:20.885Z,5.30
2022-12-07T00:48:48.493Z,5.32
2022-12-07T00:51:16.965Z,5.27
2022-12-07T00:53:43.443Z,5.13
2022-12-07T00:56:13.259Z,5.37
2022-12-07T00:58:39.577Z,5.93
2022-12-07T01:01:08.038Z,5.92
2022-12-07T01:03:34.661Z,5.83
2022-12-07T01:06:03.157Z,5.60
2022-12-07T01:08:29.575Z,5.66
2022-12-07T01:11:05.684Z,5.73
2022-12-07T01:13:32.894Z,5.66
2022-12-07T01:16:01.233Z,5.43
2022-12-07T01:18:29.182Z,5.80
2022-12-07T01:21:14.221Z,5.77
2022-12-07T01:23:41.551Z,5.91
2022-12-07T01:26:12.214Z,5.84
2022-12-07T01:28:39.359Z,5.89
2022-12-07T01:31:12.298Z,5.71
2022-12-07T01:33:39.674Z,5.49
2022-12-07T01:36:21.198Z,5.55
2022-12-07T01:38:52.508Z,5.45
2022-12-07T01:41:21.529Z,5.74
2022-12-07T01:44:06.701Z,5.97
2022-12-07T01:46:33.215Z,5.97
2022-12-07T01:49:00.910Z,5.82
2022-12-07T01:51:28.439Z,6.01
2022-12-07T01:53:55.020Z,6.07
2022-12-07T01:56:25.324Z,6.16
2022-12-07T01:58:53.226Z,5.95
2022-12-07T02:01:19.648Z,5.67
2022-12-07T02:03:46.218Z,5.70
2022-12-07T02:06:19.281Z,5.58
2022-12-07T02:08:46.815Z,5.57
2022-12-07T02:11:13.589Z,5.63
2022-12-07T02:13:42.990Z,5.59
2022-12-07T02:16:14.337Z,5.57
2022-12-07T02:19:16.215Z,5.70
2022-12-07T02:21:57.463Z,5.70
2022-12-07T02:24:58.154Z,5.75
2022-12-07T02:27:38.984Z,5.92
2022-12-07T02:30:27.072Z,5.61
2022-12-07T02:32:56.745Z,5.73
2022-12-07T02:35:30.985Z,5.91
2022-12-07T02:38:15.513Z,6.11
2022-12-07T02:40:55.452Z,6.10
2022-12-07T02:43:32.547Z,6.03
2022-12-07T02:46:04.328Z,5.79
2022-12-07T02:48:33.245Z,6.11
2022-12-07T02:50:59.857Z,6.13
2022-12-07T02:53:42.162Z,6.20
2022-12-07T02:56:18.565Z,6.34
2022-12-07T02:59:19.397Z,6.31
2022-12-07T03:02:01.627Z,6.17
2022-12-07T03:04:41.076Z,6.08
2022-12-07T03:07:24.075Z,6.15
2022-12-07T03:10:06.103Z,6.35
2022-12-07T03:12:42.060Z,6.38
2022-12-07T03:15:40.722Z,6.28
2022-12-07T03:18:10.472Z,5.86
2022-12-07T03:20:39.564Z,6.09
2022-12-07T03:23:11.810Z,6.09
2022-12-07T03:25:43.274Z,6.14
2022-12-07T03:28:11.873Z,6.24
2022-12-07T03:30:54.797Z,6.17
2022-12-07T03:33:28.738Z,6.13
2022-12-07T03:36:21.774Z,6.27
2022-12-07T03:39:03.504Z,6.22
2022-12-07T03:41:40.821Z,6.21
2022-12-07T03:44:10.087Z,6.31
2022-12-07T03:47:03.585Z,6.44
2022-12-07T03:49:32.695Z,6.39
2022-12-07T03:52:45.454Z,6.37
2022-12-07T03:55:25.434Z,6.22
2022-12-07T03:57:57.830Z,6.17
2022-12-07T04:00:24.339Z,6.25
2022-12-07T04:02:53.947Z,6.30
2022-12-07T04:05:20.662Z,6.22
2022-12-07T04:07:47.369Z,6.08
2022-12-07T04:10:14.497Z,6.24
2022-12-07T04:12:41.104Z,6.19
2022-12-07T04:15:08.415Z,6.34
2022-12-07T04:17:34.825Z,6.27
2022-12-07T04:20:01.652Z,6.21
2022-12-07T04:22:28.547Z,6.38
2022-12-07T04:24:55.009Z,6.45
2022-12-07T04:27:21.445Z,6.32
2022-12-07T04:29:47.762Z,6.31
2022-12-07T04:32:14.148Z,6.06
2022-12-07T04:34:40.676Z,6.06
2022-12-07T04:37:07.042Z,6.02
2022-12-07T04:39:33.951Z,6.17
2022-12-07T04:42:01.522Z,6.13
2022-12-07T04:44:28.999Z,6.20
2022-12-07T04:46:57.513Z,5.93
2022-12-07T04:49:24.804Z,5.95
2022-12-07T04:51:51.282Z,6.10
2022-12-07T04:54:18.262Z,6.36
2022-12-07T04:56:45.117Z,6.39
2022-12-07T04:59:13.028Z,6.35
2022-12-07T05:01:39.828Z,6.52
2022-12-07T05:04:07.296Z,6.34
2022-12-07T05:06:33.912Z,6.15
2022-12-07T05:09:00.480Z,5.91
2022-12-07T05:11:38.937Z,6.02
2022-12-07T05:14:25.697Z,6.00
2022-12-07T05:16:53.837Z,6.08
2022-12-07T05:19:20.441Z,5.78
2022-12-07T05:21:47.454Z,5.66
2022-12-07T05:24:16.263Z,5.68
2022-12-07T05:26:44.489Z,5.71
2022-12-07T05:29:15.704Z,5.56
2022-12-07T05:31:42.884Z,5.78
2022-12-07T05:34:10.082Z,5.72
2022-12-07T05:36:36.675Z,5.75
2022-12-07T05:39:03.760Z,5.52
2022-12-07T05:41:49.360Z,5.82
2022-12-07T05:44:16.332Z,5.78
2022-12-07T05:46:42.879Z,5.95
2022-12-07T05:49:09.522Z,5.90
2022-12-07T05:51:36.299Z,5.68
2022-12-07T05:54:03.968Z,5.59
2022-12-07T05:56:31.243Z,5.72
2022-12-07T05:59:17.301Z,5.70
2022-12-07T06:01:44.341Z,5.41
2022-12-07T06:04:11.048Z,5.59
2022-12-07T06:06:37.448Z,5.52
2022-12-07T06:09:04.023Z,5.50
2022-12-07T06:11:48.879Z,5.57
2022-12-07T06:14:15.568Z,5.52
2022-12-07T06:16:42.097Z,5.69
2022-12-07T06:19:08.662Z,5.98
2022-12-07T06:21:35.081Z,6.06
2022-12-07T06:24:02.086Z,6.10
2022-12-07T06:26:28.736Z,6.05
2022-12-07T06:28:58.107Z,6.05
2022-12-07T06:31:24.489Z,6.09
2022-12-07T06:33:50.824Z,6.23
2022-12-07T06:36:18.142Z,6.32
2022-12-07T06:38:46.732Z,5.99
2022-12-07T06:41:13.296Z,6.04
2022-12-07T06:43:40.224Z,6.07
2022-12-07T06:46:06.660Z,5.72
2022-12-07T06:48:33.118Z,5.61
2022-12-07T06:51:00.491Z,5.57
2022-12-07T06:53:27.437Z,5.38
2022-12-07T06:55:54.125Z,5.24
2022-12-07T06:58:20.931Z,5.28
2022-12-07T07:00:50.164Z,5.07
2022-12-07T07:03:17.614Z,5.02
2022-12-07T07:05:45.340Z,4.93
2022-12-07T07:08:28.361Z,4.87
2022-12-07T07:10:54.844Z,4.84
2022-12-07T07:13:21.157Z,4.82
2022-12-07T07:15:50.879Z,4.75
2022-12-07T07:18:17.486Z,4.80
2022-12-07T07:20:45.897Z,4.75
2022-12-07T07:23:12.888Z,4.69
2022-12-07T07:25:39.487Z,4.67
2022-12-07T07:28:05.924Z,4.65
2022-12-07T07:30:32.482Z,4.58
2022-12-07T07:33:00.298Z,4.67
2022-12-07T07:35:28.400Z,4.68
2022-12-07T07:37:56.318Z,4.72
2022-12-07T07:40:25.301Z,4.74
2022-12-07T07:42:53.594Z,4.69
2022-12-07T07:45:21.850Z,4.57
2022-12-07T07:47:48.441Z,4.54
2022-12-07T07:50:16.494Z,4.53
2022-12-07T07:52:43.742Z,4.46
2022-12-07T07:55:10.688Z,4.36
2022-12-07T07:57:38.824Z,4.36
2022-12-07T08:00:09.130Z,4.32
2022-12-07T08:02:46.532Z,4.27
2022-12-07T08:05:13.822Z,4.37
2022-12-07T08:07:40.751Z,4.47
2022-12-07T08:10:11.339Z,4.45
2022-12-07T08:12:59.560Z,4.55
2022-12-07T08:15:28.635Z,4.64
2022-12-07T08:17:55.202Z,4.68
2022-12-07T08:20:21.863Z,4.72
2022-12-07T08:22:48.220Z,4.72
2022-12-07T08:25:14.826Z,4.84
2022-12-07T08:27:41.171Z,4.64
2022-12-07T08:30:07.951Z,4.55
2022-12-07T08:32:34.308Z,4.50
2022-12-07T08:35:00.688Z,4.56
2022-12-07T08:37:27.134Z,4.53
2022-12-07T08:39:54.572Z,4.52
2022-12-07T08:42:23.363Z,4.41
2022-12-07T08:44:49.714Z,4.44
2022-12-07T08:47:16.477Z,4.39
2022-12-07T08:49:47.906Z,4.56
2022-12-07T08:52:14.550Z,4.51
2022-12-07T08:54:42.131Z,4.49
2022-12-07T08:57:09.477Z,4.61
2022-12-07T08:59:37.536Z,4.45
2022-12-07T09:02:05.726Z,4.31
2022-12-07T09:04:32.630Z,4.51
2022-12-07T09:06:59.278Z,4.50
2022-12-07T09:09:25.647Z,4.38
2022-12-07T09:11:51.977Z,4.24
2022-12-07T09:14:19.196Z,4.29
2022-12-07T09:16:45.549Z,4.27
2022-12-07T09:19:12.437Z,4.34
2022-12-07T09:21:38.881Z,4.26
2022-12-07T09:24:05.700Z,4.39
2022-12-07T09:26:32.228Z,4.39
2022-12-07T09:28:59.522Z,4.30
2022-12-07T09:31:26.998Z,4.24
2022-12-07T09:33:59.243Z,4.31
2022-12-07T09:36:26.931Z,4.29
2022-12-07T09:38:53.549Z,4.13
2022-12-07T09:41:22.296Z,4.20
2022-12-07T09:43:49.308Z,4.25
2022-12-07T09:46:19.274Z,4.14
2022-12-07T09:48:53.059Z,3.95
2022-12-07T09:51:25.835Z,4.00
2022-12-07T09:53:55.562Z,3.98
2022-12-07T09:56:23.889Z,3.96
2022-12-07T09:58:55.443Z,3.83
2022-12-07T10:01:22.705Z,3.85
2022-12-07T10:03:56.443Z,3.87
2022-12-07T10:06:23.044Z,3.92
2022-12-07T10:08:49.439Z,3.87
2022-12-07T10:11:16.551Z,3.81
2022-12-07T10:13:49.600Z,3.78
2022-12-07T10:16:25.291Z,3.84
2022-12-07T10:18:52.307Z,4.13
2022-12-07T10:21:27.045Z,4.16
2022-12-07T10:24:15.159Z,4.26
2022-12-07T10:26:48.266Z,4.20
2022-12-07T10:29:25.191Z,4.36
2022-12-07T10:32:05.399Z,4.67
2022-12-07T10:34:42.695Z,4.70
2022-12-07T10:37:20.843Z,4.69
2022-12-07T10:39:57.851Z,4.61
2022-12-07T10:42:29.532Z,4.62
2022-12-07T10:45:13.278Z,4.67
2022-12-07T10:47:46.716Z,4.99
2022-12-07T10:50:44.363Z,4.99
2022-12-07T10:53:42.218Z,4.89
2022-12-07T10:56:19.312Z,4.94
2022-12-07T10:59:02.936Z,4.95
2022-12-07T11:01:48.261Z,4.95
2022-12-07T11:04:22.111Z,5.00
2022-12-07T11:06:59.213Z,4.94
2022-12-07T11:10:07.895Z,5.07
2022-12-07T11:12:34.697Z,5.13
2022-12-07T11:15:07.001Z,4.52
2022-12-07T11:17:48.357Z,4.57
2022-12-07T11:20:36.852Z,4.57
2022-12-07T11:23:27.345Z,4.78
2022-12-07T11:26:32.887Z,5.00
2022-12-07T11:29:37.327Z,5.25
2022-12-07T11:32:22.009Z,5.29
2022-12-07T11:35:07.840Z,5.21
2022-12-07T11:37:36.451Z,5.27
2022-12-07T11:40:36.729Z,5.36
2022-12-07T11:43:26.859Z,5.42
2022-12-07T11:45:59.458Z,5.54
2022-12-07T11:48:49.476Z,5.40
2022-12-07T11:51:19.201Z,5.14
2022-12-07T11:53:55.434Z,5.56
2022-12-07T11:56:27.264Z,5.44
2022-12-07T11:59:14.035Z,5.10
2022-12-07T12:01:54.074Z,5.25
2022-12-07T12:04:36.165Z,4.93
2022-12-07T12:10:07.983Z,5.45
2022-12-07T12:16:17.263Z,5.33
2022-12-07T12:18:46.685Z,5.65
2022-12-07T12:21:19.805Z,5.87
2022-12-07T12:23:54.857Z,5.83
2022-12-07T12:26:27.487Z,5.39
2022-12-07T12:29:04.628Z,5.14
2022-12-07T12:31:41.654Z,5.19
2022-12-07T12:34:31.843Z,5.32
2022-12-07T12:36:59.820Z,5.31
2022-12-07T12:39:26.460Z,5.20
2022-12-07T12:41:56.139Z,5.17
2022-12-07T12:44:22.867Z,5.47
2022-12-07T12:46:57.725Z,5.35
2022-12-07T12:49:25.428Z,5.44
2022-12-07T12:51:53.799Z,5.45
2022-12-07T12:54:23.069Z,5.50
2022-12-07T12:57:00.696Z,5.61
2022-12-07T12:59:31.015Z,5.52
2022-12-07T13:02:16.318Z,5.68
2022-12-07T13:04:53.896Z,5.86
2022-12-07T13:07:51.626Z,5.80
2022-12-07T13:10:24.233Z,5.75
2022-12-07T13:12:56.995Z,5.77
2022-12-07T13:15:39.841Z,5.67
2022-12-07T13:18:28.375Z,5.36
2022-12-07T13:20:56.712Z,5.11
2022-12-07T13:23:45.369Z,4.95
2022-12-07T13:26:21.054Z,5.05
2022-12-07T13:28:51.270Z,4.97
2022-12-07T13:31:34.104Z,4.82
2022-12-07T13:34:02.571Z,4.79
2022-12-07T13:36:39.053Z,4.45
2022-12-07T13:39:14.668Z,4.19
2022-12-07T13:41:45.368Z,4.21
2022-12-07T13:44:14.504Z,4.21
2022-12-07T13:46:49.728Z,4.22
2022-12-07T13:49:25.857Z,4.31
2022-12-07T13:51:54.158Z,4.37
2022-12-07T13:54:22.110Z,4.40
2022-12-07T13:56:51.968Z,4.35
2022-12-07T13:59:23.502Z,4.32
2022-12-07T14:01:53.206Z,4.29
2022-12-07T14:04:36.312Z,4.35
2022-12-07T14:07:54.285Z,4.36
2022-12-07T14:10:30.838Z,4.30
2022-12-07T14:12:58.475Z,4.16
2022-12-07T14:15:38.195Z,4.08
2022-12-07T14:18:05.236Z,3.93
2022-12-07T14:20:38.574Z,3.66
2022-12-07T14:23:20.797Z,3.49
2022-12-07T14:25:51.536Z,3.18
2022-12-07T14:28:34.409Z,3.11
2022-12-07T14:31:02.877Z,3.17
2022-12-07T14:33:30.113Z,3.18
2022-12-07T14:35:58.403Z,3.11
2022-12-07T14:38:26.601Z,3.10
2022-12-07T14:41:15.329Z,3.11
2022-12-07T14:43:59.952Z,3.08
2022-12-07T14:46:29.788Z,3.05
2022-12-07T14:54:33.617Z,3.16
2022-12-07T14:57:00.944Z,3.18
2022-12-07T14:59:27.990Z,3.09
2022-12-07T15:01:57.249Z,3.09
2022-12-07T15:04:25.943Z,3.09
2022-12-07T15:07:02.822Z,3.12
2022-12-07T15:09:29.972Z,3.12
2022-12-07T15:11:57.665Z,3.19
2022-12-07T15:14:25.101Z,3.02
2022-12-07T15:17:08.564Z,3.06
2022-12-07T15:19:41.320Z,3.04
2022-12-07T15:22:11.289Z,3.07
2022-12-07T15:24:39.116Z,3.03
2022-12-07T15:27:08.526Z,3.17
2022-12-07T15:29:38.356Z,3.24
2022-12-07T15:32:06.991Z,3.25
2022-12-07T15:34:39.889Z,3.36
2022-12-07T15:37:11.839Z,3.22
2022-12-07T15:39:42.746Z,3.16
2022-12-07T15:42:13.550Z,3.23
2022-12-07T15:44:58.820Z,3.21
2022-12-07T15:47:26.996Z,3.26
2022-12-07T15:49:54.011Z,3.29
2022-12-07T15:52:21.244Z,3.36
2022-12-07T15:54:49.083Z,3.34
2022-12-07T15:57:19.625Z,3.35
2022-12-07T15:59:51.509Z,3.37
2022-12-07T16:02:18.310Z,3.41
2022-12-07T16:04:45.713Z,3.39
2022-12-07T16:07:14.847Z,3.41
2022-12-07T16:09:42.669Z,3.35
2022-12-07T16:12:10.825Z,3.23
2022-12-07T16:14:38.295Z,3.23
2022-12-07T16:17:05.738Z,3.19
2022-12-07T16:19:34.069Z,3.25
2022-12-07T16:22:01.426Z,3.30
2022-12-07T16:24:28.480Z,3.21
2022-12-07T16:26:55.824Z,3.17
2022-12-07T16:29:23.151Z,3.18
2022-12-07T16:31:52.071Z,3.17
2022-12-07T16:34:19.220Z,3.20
2022-12-07T16:39:34.459Z,3.12
2022-12-07T16:42:02.097Z,3.11
2022-12-07T16:44:29.042Z,3.25
2022-12-07T16:46:56.324Z,3.33
2022-12-07T16:49:25.540Z,3.31
2022-12-07T16:52:15.016Z,3.27
2022-12-07T16:54:40.127Z,3.22
2022-12-07T16:57:06.941Z,3.26
2022-12-07T16:59:34.473Z,3.35
2022-12-07T17:02:02.508Z,3.32
2022-12-07T17:04:29.523Z,3.33
2022-12-07T17:06:56.278Z,3.35
2022-12-07T17:09:23.020Z,3.34
2022-12-07T17:11:52.624Z,3.20
2022-12-07T17:14:37.956Z,3.10
2022-12-07T17:17:04.738Z,2.96
2022-12-07T17:19:31.260Z,2.97
2022-12-07T17:21:57.902Z,2.93
2022-12-07T17:24:24.461Z,2.95
2022-12-07T17:26:51.302Z,2.99
2022-12-07T17:29:19.382Z,2.94
2022-12-07T17:31:51.423Z,2.86
2022-12-07T17:34:18.961Z,2.89
2022-12-07T17:36:46.260Z,3.23
2022-12-07T17:39:16.065Z,3.33
2022-12-07T17:42:03.873Z,3.42
2022-12-07T17:44:31.247Z,3.59
2022-12-07T17:46:59.341Z,3.54
2022-12-07T17:49:28.759Z,3.53
2022-12-07T17:52:15.019Z,3.74
2022-12-07T17:54:41.922Z,3.90
2022-12-07T17:57:09.077Z,4.01
2022-12-07T17:59:37.012Z,4.09
2022-12-07T18:02:04.319Z,4.05
2022-12-07T18:04:33.809Z,3.87
2022-12-07T18:07:00.736Z,3.74
2022-12-07T18:09:28.218Z,3.60
2022-12-07T18:11:55.399Z,3.74
2022-12-07T18:14:25.296Z,3.84
2022-12-07T18:16:52.520Z,3.84
2022-12-07T18:19:19.444Z,3.87
2022-12-07T18:21:47.780Z,3.82
2022-12-07T18:24:17.386Z,3.75
2022-12-07T18:26:49.364Z,3.71
2022-12-07T18:29:17.696Z,3.78
2022-12-07T18:31:48.818Z,3.87
2022-12-07T18:34:19.003Z,3.83
2022-12-07T18:36:49.020Z,3.46
2022-12-07T18:39:20.415Z,3.45
2022-12-07T18:41:48.158Z,3.40
2022-12-07T18:44:16.443Z,3.36
2022-12-07T18:46:43.524Z,3.31
2022-12-07T18:49:12.746Z,3.34
2022-12-07T18:51:40.689Z,3.45
2022-12-07T18:54:09.006Z,3.64
2022-12-07T18:56:36.652Z,3.84
2022-12-07T18:59:23.851Z,3.83
2022-12-07T19:01:53.459Z,3.79
2022-12-07T19:04:21.579Z,3.83
2022-12-07T19:06:49.904Z,3.81
2022-12-07T19:09:18.123Z,3.90
2022-12-07T19:11:52.435Z,3.90
2022-12-07T19:14:25.496Z,3.89
2022-12-07T19:17:05.624Z,3.95
2022-12-07T19:19:39.500Z,3.79
2022-12-07T19:22:09.494Z,3.88
2022-12-07T19:24:38.283Z,3.80
2022-12-07T19:27:10.643Z,3.61
2022-12-07T19:29:45.151Z,3.57
2022-12-07T19:32:17.257Z,3.78
2022-12-07T19:34:45.992Z,3.70
2022-12-07T19:37:13.409Z,3.78
2022-12-07T19:39:41.632Z,3.77
2022-12-07T19:42:09.846Z,3.75
2022-12-07T19:44:40.526Z,3.54
2022-12-07T19:47:15.334Z,3.71
2022-12-07T19:49:43.600Z,3.83
2022-12-07T19:52:12.888Z,3.86
2022-12-07T19:54:40.346Z,4.12
2022-12-07T19:57:08.835Z,4.09
2022-12-07T19:59:36.682Z,4.01
2022-12-07T20:02:05.436Z,3.93
2022-12-07T20:04:34.808Z,3.49
2022-12-07T20:07:01.941Z,3.60
2022-12-07T20:09:28.725Z,3.68
2022-12-07T20:12:13.994Z,3.43
2022-12-07T20:14:40.958Z,3.43
2022-12-07T20:17:09.210Z,3.46
2022-12-07T20:19:37.917Z,3.33
2022-12-07T20:22:05.676Z,3.32
2022-12-07T20:24:35.553Z,3.46
2022-12-07T20:27:03.673Z,3.44
2022-12-07T20:29:30.555Z,3.35
2022-12-07T20:31:57.454Z,3.32
2022-12-07T20:34:28.360Z,3.35
2022-12-07T20:36:55.449Z,3.31
2022-12-07T20:39:23.209Z,3.31
2022-12-07T20:42:10.093Z,3.27
2022-12-07T20:44:39.559Z,3.15
2022-12-07T20:47:06.683Z,3.18
2022-12-07T20:49:33.986Z,3.11
2022-12-07T20:52:01.131Z,3.04
2022-12-07T20:54:28.042Z,3.18
2022-12-07T20:56:55.138Z,3.12
2022-12-07T20:59:22.081Z,3.20
2022-12-07T21:01:48.937Z,2.92
2022-12-07T21:04:15.747Z,3.27
2022-12-07T21:06:42.419Z,2.96
2022-12-07T21:09:10.189Z,3.21
2022-12-07T21:11:37.482Z,3.22
2022-12-07T21:14:04.657Z,3.09
2022-12-07T21:16:32.029Z,3.11
2022-12-07T21:19:05.378Z,3.18
2022-12-07T21:21:33.539Z,3.21
2022-12-07T21:24:03.662Z,3.15
2022-12-07T21:26:36.259Z,3.16
2022-12-07T21:29:05.173Z,3.10
2022-12-07T21:31:32.355Z,3.09
2022-12-07T21:34:02.039Z,3.07
2022-12-07T21:36:28.718Z,3.03
2022-12-07T21:38:56.082Z,2.99
2022-12-07T21:41:28.931Z,2.89
2022-12-07T21:43:56.523Z,2.89
2022-12-07T21:46:31.289Z,2.76
2022-12-07T21:49:04.323Z,2.39
2022-12-07T21:51:31.549Z,2.38
2022-12-07T21:53:59.919Z,2.38
2022-12-07T21:56:33.203Z,2.32
2022-12-07T21:59:03.684Z,2.36
2022-12-07T22:01:34.948Z,2.41
2022-12-07T22:04:01.790Z,2.49
2022-12-07T22:06:28.665Z,2.48
2022-12-07T22:08:55.765Z,2.47
2022-12-07T22:11:22.405Z,2.43
2022-12-07T22:14:10.585Z,2.35
2022-12-07T22:16:38.927Z,2.40
2022-12-07T22:19:07.292Z,2.46
2022-12-07T22:21:34.686Z,2.46
2022-12-07T22:24:02.393Z,2.38
2022-12-07T22:26:28.977Z,2.41
2022-12-07T22:28:55.836Z,2.40
2022-12-07T22:31:23.725Z,2.46
2022-12-07T22:33:50.673Z,2.39
2022-12-07T22:36:17.402Z,2.48
2022-12-07T22:38:44.903Z,2.52
2022-12-07T22:41:25.106Z,2.55
2022-12-07T22:43:52.094Z,2.57
2022-12-07T22:46:18.760Z,2.57
2022-12-07T22:48:45.627Z,2.60
2022-12-07T22:51:24.001Z,2.58
2022-12-07T22:53:51.551Z,2.55
2022-12-07T22:56:18.215Z,2.50
2022-12-07T22:58:45.809Z,2.48
2022-12-07T23:01:14.286Z,2.45
2022-12-07T23:03:41.412Z,2.52
2022-12-07T23:06:14.125Z,2.42
2022-12-07T23:08:41.072Z,2.47
2022-12-07T23:11:09.673Z,2.51
2022-12-07T23:13:37.310Z,2.58
2022-12-07T23:16:14.543Z,2.59
2022-12-07T23:18:42.149Z,2.46
2022-12-07T23:21:08.866Z,2.35
2022-12-07T23:23:35.368Z,2.31
2022-12-07T23:26:07.067Z,2.34
2022-12-07T23:28:34.057Z,2.30
2022-12-07T23:31:08.518Z,2.33
2022-12-07T23:33:34.997Z,2.33
2022-12-07T23:36:07.578Z,2.37
2022-12-07T23:38:34.389Z,2.30
2022-12-07T23:41:13.114Z,2.26
2022-12-07T23:43:40.891Z,2.31
2022-12-07T23:46:09.808Z,2.27
2022-12-07T23:48:37.486Z,2.37
2022-12-07T23:51:05.187Z,2.46
2022-12-07T23:53:33.015Z,2.42
2022-12-07T23:55:59.379Z,2.37
2022-12-07T23:58:25.815Z,2.42
